Ana Sayfa
METAR-TAF:

METAR-TAF

Havaalanları :

Milas-Bodrum Havalimanı

Bodrum, Türkiye

Enlem: 37-14-53N, Boylam: 027-40-55E, yükseklik: 6 m

Güncel hava durumu gözlemi

Rapor saat 02:20 UTC de 28 dakika önce yapıldı.
Rüzgar doğudan 5 kt, kuzeydoğu ve doğu/güneydoğu arasında değişken
Sıcaklık 10°C
Nem 82%
Basınç 1019 hPa
Görüş mesafesi 10 km veya daha fazla
3000 ft yükseklikte parçalı bulutlu
9000 ft yükseklikte parçalı çok bulutlu

METAR: LTFE 240220Z 09005KT 050V110 9999 SCT030 BKN090 10/07 Q1019 NOSIG RMK RWY10 VRB02KT

Saat: 05:48 (02:48 UTC)

Tahmin

Rapor saat 22:40 UTC de 4 saat ve 8 dakika önce yapıldı.
Ayın 24'si saat 00 UTC'den ayın 24'si saat 24 UTC'ye kadar geçerli Tahmin
Rüzgar değişken yönden 2 kt
Görüş mesafesi 10 km veya daha fazla
3000 ft yükseklikte parçalı bulutlu
9000 ft yükseklikte parçalı çok bulutlu
hafif sağanak yağmurlar

TAF: LTFE 232240Z 2400/2424 VRB02KT 9999 -SHRA SCT030 BKN090

4.000'den fazla havaalanı için hava durumu gözlemleri ve tahminleri (METAR ve TAF raporları).

Kullanılabilir istasyonlar harita üzerinde sarı ve kırmızı noktalarla gösterilir.

İstasyonun adını görmek için fareyi noktanın üzerinde gezdirin.

Sonrasında hava gözlem ve tahminlerini görmek için tıklayın.

Haritayı değiştirmek için: yaklaştırmak için siyah artı işaretli yeşil düğmeye ve uzaklaştırmak için de eksi işaretli düğmeye hızla tıklayın; bitişik haritalar için yeşil okları kullanın.


METAR-TAF: